sensor_id;sensor_type;location;lat;lon;timestamp;temperature;humidity
57058;DHT22;55017;52.848;6.748;2023-04-22T12:52:19;22.20;99.90
57058;DHT22;55017;52.848;6.748;2023-04-22T12:54:44;22.00;71.00
57058;DHT22;55017;52.848;6.748;2023-04-22T12:57:10;22.60;99.90
57058;DHT22;55017;52.848;6.748;2023-04-22T12:59:36;23.60;72.40
57058;DHT22;55017;52.848;6.748;2023-04-22T13:02:01;22.90;71.60
57058;DHT22;55017;52.848;6.748;2023-04-22T13:04:27;22.50;71.70
57058;DHT22;55017;52.848;6.748;2023-04-22T13:06:52;22.60;71.60
57058;DHT22;55017;52.848;6.748;2023-04-22T13:09:24;22.50;71.00
57058;DHT22;55017;52.848;6.748;2023-04-22T13:11:51;22.60;70.70
57058;DHT22;55017;52.848;6.748;2023-04-22T13:14:17;22.50;70.60
57058;DHT22;55017;52.848;6.748;2023-04-22T13:16:42;22.20;70.70
57058;DHT22;55017;52.848;6.748;2023-04-22T13:19:08;22.20;70.80
57058;DHT22;55017;52.848;6.748;2023-04-22T13:21:34;22.20;70.90
57058;DHT22;55017;52.848;6.748;2023-04-22T13:24:00;22.20;70.70
57058;DHT22;55017;52.848;6.748;2023-04-22T13:26:25;22.50;70.30
57058;DHT22;55017;52.848;6.748;2023-04-22T13:28:51;22.80;69.60
57058;DHT22;55017;52.848;6.748;2023-04-22T13:31:17;23.30;68.40
57058;DHT22;55017;52.848;6.748;2023-04-22T13:33:42;23.40;67.10
57058;DHT22;55017;52.848;6.748;2023-04-22T13:36:08;23.40;66.70
57058;DHT22;55017;52.848;6.748;2023-04-22T13:38:34;23.30;66.60
57058;DHT22;55017;52.848;6.748;2023-04-22T13:40:59;23.20;66.80
57058;DHT22;55017;52.848;6.748;2023-04-22T13:43:25;23.10;66.70
57058;DHT22;55017;52.848;6.748;2023-04-22T13:45:51;22.90;67.00
57058;DHT22;55017;52.848;6.748;2023-04-22T13:48:16;22.60;67.20
57058;DHT22;55017;52.848;6.748;2023-04-22T13:50:42;22.50;67.60
57058;DHT22;55017;52.848;6.748;2023-04-22T13:53:09;22.40;68.10
57058;DHT22;55017;52.848;6.748;2023-04-22T13:55:36;22.20;68.40
57058;DHT22;55017;52.848;6.748;2023-04-22T13:58:02;22.10;68.70
57058;DHT22;55017;52.848;6.748;2023-04-22T14:00:29;22.00;69.10
57058;DHT22;55017;52.848;6.748;2023-04-22T14:02:55;21.90;69.20
57058;DHT22;55017;52.848;6.748;2023-04-22T14:05:21;21.90;69.40
57058;DHT22;55017;52.848;6.748;2023-04-22T14:07:46;22.70;66.40
57058;DHT22;55017;52.848;6.748;2023-04-22T14:10:12;22.20;68.20
57058;DHT22;55017;52.848;6.748;2023-04-22T14:12:38;22.00;69.00
57058;DHT22;55017;52.848;6.748;2023-04-22T14:15:04;22.00;69.30
57058;DHT22;55017;52.848;6.748;2023-04-22T14:17:31;21.80;69.40
57058;DHT22;55017;52.848;6.748;2023-04-22T14:19:56;21.70;69.40
57058;DHT22;55017;52.848;6.748;2023-04-22T14:22:22;21.70;69.60
57058;DHT22;55017;52.848;6.748;2023-04-22T14:24:48;21.70;69.60
57058;DHT22;55017;52.848;6.748;2023-04-22T14:27:13;21.60;69.60
57058;DHT22;55017;52.848;6.748;2023-04-22T14:29:39;21.60;69.60
57058;DHT22;55017;52.848;6.748;2023-04-22T14:32:04;22.40;66.50
57058;DHT22;55017;52.848;6.748;2023-04-22T14:34:30;22.00;68.50
57058;DHT22;55017;52.848;6.748;2023-04-22T14:36:56;21.90;69.40
57058;DHT22;55017;52.848;6.748;2023-04-22T14:39:21;21.60;69.70
57058;DHT22;55017;52.848;6.748;2023-04-22T14:41:47;21.70;69.80
57058;DHT22;55017;52.848;6.748;2023-04-22T14:44:13;21.60;69.80
57058;DHT22;55017;52.848;6.748;2023-04-22T14:46:38;21.60;70.10
57058;DHT22;55017;52.848;6.748;2023-04-22T14:49:04;21.60;70.30
57058;DHT22;55017;52.848;6.748;2023-04-22T14:51:30;21.50;70.40
57058;DHT22;55017;52.848;6.748;2023-04-22T14:53:56;21.40;70.30
57058;DHT22;55017;52.848;6.748;2023-04-22T14:56:22;21.50;70.60
57058;DHT22;55017;52.848;6.748;2023-04-22T14:58:48;21.30;70.50
57058;DHT22;55017;52.848;6.748;2023-04-22T15:01:14;21.40;70.50
57058;DHT22;55017;52.848;6.748;2023-04-22T15:03:40;21.40;70.70
57058;DHT22;55017;52.848;6.748;2023-04-22T15:06:05;21.70;70.80
57058;DHT22;55017;52.848;6.748;2023-04-22T15:08:31;21.40;70.70
57058;DHT22;55017;52.848;6.748;2023-04-22T15:10:56;21.40;70.60
57058;DHT22;55017;52.848;6.748;2023-04-22T15:13:24;21.30;70.50
57058;DHT22;55017;52.848;6.748;2023-04-22T15:15:50;21.40;70.60
57058;DHT22;55017;52.848;6.748;2023-04-22T15:18:16;21.30;70.50
57058;DHT22;55017;52.848;6.748;2023-04-22T15:23:46;21.20;71.70
57058;DHT22;55017;52.848;6.748;2023-04-22T15:26:12;21.00;72.30
57058;DHT22;55017;52.848;6.748;2023-04-22T15:28:37;20.60;72.60
57058;DHT22;55017;52.848;6.748;2023-04-22T15:31:03;20.40;74.50
57058;DHT22;55017;52.848;6.748;2023-04-22T15:33:28;19.90;78.20
57058;DHT22;55017;52.848;6.748;2023-04-22T15:35:54;19.50;81.60
57058;DHT22;55017;52.848;6.748;2023-04-22T15:38:19;19.20;85.00
57058;DHT22;55017;52.848;6.748;2023-04-22T15:40:45;18.70;89.50
57058;DHT22;55017;52.848;6.748;2023-04-22T15:43:11;18.50;90.80
57058;DHT22;55017;52.848;6.748;2023-04-22T15:45:36;18.20;92.70
57058;DHT22;55017;52.848;6.748;2023-04-22T15:48:02;17.90;95.10
57058;DHT22;55017;52.848;6.748;2023-04-22T15:50:30;17.70;99.90
57058;DHT22;55017;52.848;6.748;2023-04-22T15:52:55;17.30;99.90
57058;DHT22;55017;52.848;6.748;2023-04-22T15:55:21;17.10;99.90
57058;DHT22;55017;52.848;6.748;2023-04-22T15:57:47;17.10;99.90
57058;DHT22;55017;52.848;6.748;2023-04-22T16:00:13;17.10;99.90
57058;DHT22;55017;52.848;6.748;2023-04-22T16:02:39;16.90;99.90
57058;DHT22;55017;52.848;6.748;2023-04-22T16:05:05;17.00;99.90
57058;DHT22;55017;52.848;6.748;2023-04-22T16:07:31;16.90;99.90
57058;DHT22;55017;52.848;6.748;2023-04-22T16:09:57;16.70;99.90
57058;DHT22;55017;52.848;6.748;2023-04-22T16:12:22;16.80;99.90
57058;DHT22;55017;52.848;6.748;2023-04-22T16:14:48;16.60;99.90
57058;DHT22;55017;52.848;6.748;2023-04-22T16:17:14;16.60;99.90
57058;DHT22;55017;52.848;6.748;2023-04-22T16:19:40;16.50;99.90
57058;DHT22;55017;52.848;6.748;2023-04-22T16:22:06;16.40;99.90
57058;DHT22;55017;52.848;6.748;2023-04-22T16:24:31;16.30;99.90
57058;DHT22;55017;52.848;6.748;2023-04-22T16:26:57;16.30;99.90
57058;DHT22;55017;52.848;6.748;2023-04-22T16:29:23;16.10;99.90
57058;DHT22;55017;52.848;6.748;2023-04-22T16:31:49;16.10;99.90
57058;DHT22;55017;52.848;6.748;2023-04-22T16:34:15;16.10;99.90
57058;DHT22;55017;52.848;6.748;2023-04-22T16:36:41;16.10;99.90
57058;DHT22;55017;52.848;6.748;2023-04-22T16:39:06;16.10;99.90
57058;DHT22;55017;52.848;6.748;2023-04-22T16:41:35;16.10;99.90
57058;DHT22;55017;52.848;6.748;2023-04-22T16:44:00;16.10;99.90
57058;DHT22;55017;52.848;6.748;2023-04-22T16:46:26;16.00;99.90
57058;DHT22;55017;52.848;6.748;2023-04-22T16:48:52;16.10;99.90
57058;DHT22;55017;52.848;6.748;2023-04-22T16:51:18;16.10;99.90
57058;DHT22;55017;52.848;6.748;2023-04-22T16:53:44;16.10;99.90
57058;DHT22;55017;52.848;6.748;2023-04-22T16:56:10;15.80;99.90
57058;DHT22;55017;52.848;6.748;2023-04-22T16:58:36;15.80;99.90
57058;DHT22;55017;52.848;6.748;2023-04-22T17:01:01;15.90;99.90
57058;DHT22;55017;52.848;6.748;2023-04-22T17:03:27;15.80;99.90
57058;DHT22;55017;52.848;6.748;2023-04-22T17:05:53;15.70;99.90
57058;DHT22;55017;52.848;6.748;2023-04-22T17:08:18;15.80;99.90
57058;DHT22;55017;52.848;6.748;2023-04-22T17:10:44;15.90;99.90
57058;DHT22;55017;52.848;6.748;2023-04-22T17:13:13;15.90;99.90
57058;DHT22;55017;52.848;6.748;2023-04-22T17:15:40;15.80;99.90
57058;DHT22;55017;52.848;6.748;2023-04-22T17:18:06;15.80;99.90
57058;DHT22;55017;52.848;6.748;2023-04-22T17:20:34;15.60;99.90
57058;DHT22;55017;52.848;6.748;2023-04-22T17:23:00;15.60;99.90
57058;DHT22;55017;52.848;6.748;2023-04-22T17:25:26;15.50;99.90
57058;DHT22;55017;52.848;6.748;2023-04-22T17:27:51;15.50;99.90
57058;DHT22;55017;52.848;6.748;2023-04-22T17:30:17;15.50;99.90
57058;DHT22;55017;52.848;6.748;2023-04-22T17:32:42;15.60;99.90
57058;DHT22;55017;52.848;6.748;2023-04-22T17:35:08;15.50;99.90
57058;DHT22;55017;52.848;6.748;2023-04-22T17:37:34;15.40;99.90
57058;DHT22;55017;52.848;6.748;2023-04-22T17:40:00;15.40;99.90
57058;DHT22;55017;52.848;6.748;2023-04-22T17:42:27;15.30;99.90
57058;DHT22;55017;52.848;6.748;2023-04-22T17:44:52;15.30;99.90
57058;DHT22;55017;52.848;6.748;2023-04-22T17:47:18;15.40;99.90
57058;DHT22;55017;52.848;6.748;2023-04-22T17:49:43;15.20;99.90
57058;DHT22;55017;52.848;6.748;2023-04-22T17:52:10;15.30;99.90
57058;DHT22;55017;52.848;6.748;2023-04-22T17:54:35;15.30;99.90
57058;DHT22;55017;52.848;6.748;2023-04-22T17:57:01;15.30;99.90
57058;DHT22;55017;52.848;6.748;2023-04-22T17:59:27;15.20;99.90
57058;DHT22;55017;52.848;6.748;2023-04-22T18:01:53;15.20;99.90
57058;DHT22;55017;52.848;6.748;2023-04-22T18:04:18;15.20;99.90
57058;DHT22;55017;52.848;6.748;2023-04-22T18:06:44;15.20;99.90
57058;DHT22;55017;52.848;6.748;2023-04-22T18:09:09;15.10;99.90
57058;DHT22;55017;52.848;6.748;2023-04-22T18:11:35;15.10;99.90
57058;DHT22;55017;52.848;6.748;2023-04-22T18:14:00;14.90;99.90
57058;DHT22;55017;52.848;6.748;2023-04-22T18:16:26;14.80;99.90
57058;DHT22;55017;52.848;6.748;2023-04-22T18:18:52;14.90;99.90
57058;DHT22;55017;52.848;6.748;2023-04-22T18:21:17;14.80;99.90
57058;DHT22;55017;52.848;6.748;2023-04-22T18:23:43;14.80;99.90
57058;DHT22;55017;52.848;6.748;2023-04-22T18:26:09;14.90;99.90
57058;DHT22;55017;52.848;6.748;2023-04-22T18:28:36;14.70;99.90
57058;DHT22;55017;52.848;6.748;2023-04-22T18:31:05;14.80;99.90
57058;DHT22;55017;52.848;6.748;2023-04-22T18:33:31;14.80;99.90
57058;DHT22;55017;52.848;6.748;2023-04-22T18:35:56;14.70;99.90
57058;DHT22;55017;52.848;6.748;2023-04-22T18:38:24;14.50;99.90
57058;DHT22;55017;52.848;6.748;2023-04-22T18:40:50;14.70;99.90
57058;DHT22;55017;52.848;6.748;2023-04-22T18:43:16;14.60;99.90
57058;DHT22;55017;52.848;6.748;2023-04-22T18:45:41;14.60;99.90
57058;DHT22;55017;52.848;6.748;2023-04-22T18:48:07;14.60;99.90
57058;DHT22;55017;52.848;6.748;2023-04-22T18:50:32;14.60;99.90
57058;DHT22;55017;52.848;6.748;2023-04-22T18:52:58;14.50;99.90
57058;DHT22;55017;52.848;6.748;2023-04-22T18:55:23;14.50;99.90
57058;DHT22;55017;52.848;6.748;2023-04-22T18:57:49;14.50;99.90
57058;DHT22;55017;52.848;6.748;2023-04-22T19:00:15;14.60;99.90
57058;DHT22;55017;52.848;6.748;2023-04-22T19:02:41;14.40;99.90
57058;DHT22;55017;52.848;6.748;2023-04-22T19:05:08;14.30;99.90
57058;DHT22;55017;52.848;6.748;2023-04-22T19:07:34;14.30;99.90
57058;DHT22;55017;52.848;6.748;2023-04-22T19:10:00;14.30;99.90
57058;DHT22;55017;52.848;6.748;2023-04-22T19:12:25;14.40;99.90
57058;DHT22;55017;52.848;6.748;2023-04-22T19:14:51;14.20;99.90
57058;DHT22;55017;52.848;6.748;2023-04-22T19:17:16;14.20;99.90
57058;DHT22;55017;52.848;6.748;2023-04-22T19:19:42;14.10;99.90
57058;DHT22;55017;52.848;6.748;2023-04-22T19:22:08;14.00;99.90
57058;DHT22;55017;52.848;6.748;2023-04-22T19:24:34;14.10;99.90
57058;DHT22;55017;52.848;6.748;2023-04-22T19:27:00;14.00;99.90
57058;DHT22;55017;52.848;6.748;2023-04-22T19:29:31;14.00;99.90
57058;DHT22;55017;52.848;6.748;2023-04-22T19:31:56;13.90;99.90
57058;DHT22;55017;52.848;6.748;2023-04-22T19:34:23;14.00;99.90
57058;DHT22;55017;52.848;6.748;2023-04-22T19:36:49;14.00;99.90
57058;DHT22;55017;52.848;6.748;2023-04-22T19:39:15;13.80;99.90
57058;DHT22;55017;52.848;6.748;2023-04-22T19:41:41;13.90;99.90
57058;DHT22;55017;52.848;6.748;2023-04-22T19:44:07;13.90;99.90
57058;DHT22;55017;52.848;6.748;2023-04-22T19:46:32;13.90;99.90
57058;DHT22;55017;52.848;6.748;2023-04-22T19:48:58;13.80;99.90
57058;DHT22;55017;52.848;6.748;2023-04-22T19:51:23;13.70;99.90
57058;DHT22;55017;52.848;6.748;2023-04-22T19:53:49;13.60;99.90
57058;DHT22;55017;52.848;6.748;2023-04-22T19:56:16;13.70;99.90
57058;DHT22;55017;52.848;6.748;2023-04-22T19:58:42;13.40;99.90
57058;DHT22;55017;52.848;6.748;2023-04-22T20:01:08;13.40;99.90
57058;DHT22;55017;52.848;6.748;2023-04-22T20:03:34;13.30;99.90
57058;DHT22;55017;52.848;6.748;2023-04-22T20:06:00;13.30;99.90
57058;DHT22;55017;52.848;6.748;2023-04-22T20:08:26;13.20;99.90
57058;DHT22;55017;52.848;6.748;2023-04-22T20:10:52;13.20;99.90
57058;DHT22;55017;52.848;6.748;2023-04-22T20:13:19;13.00;99.90
57058;DHT22;55017;52.848;6.748;2023-04-22T20:15:46;12.90;99.90
57058;DHT22;55017;52.848;6.748;2023-04-22T20:18:12;12.90;99.90
57058;DHT22;55017;52.848;6.748;2023-04-22T20:20:38;12.90;99.90
57058;DHT22;55017;52.848;6.748;2023-04-22T20:23:04;12.80;99.90
57058;DHT22;55017;52.848;6.748;2023-04-22T20:25:37;12.80;99.90
57058;DHT22;55017;52.848;6.748;2023-04-22T20:28:06;12.80;99.90
57058;DHT22;55017;52.848;6.748;2023-04-22T20:30:31;12.70;99.90
57058;DHT22;55017;52.848;6.748;2023-04-22T20:32:57;12.70;99.90
57058;DHT22;55017;52.848;6.748;2023-04-22T20:35:23;12.70;99.90
57058;DHT22;55017;52.848;6.748;2023-04-22T20:37:49;12.70;99.90
57058;DHT22;55017;52.848;6.748;2023-04-22T20:40:17;13.40;99.90
57058;DHT22;55017;52.848;6.748;2023-04-22T20:42:43;13.10;99.90
57058;DHT22;55017;52.848;6.748;2023-04-22T20:45:08;12.80;99.90
57058;DHT22;55017;52.848;6.748;2023-04-22T20:47:39;12.70;99.90
57058;DHT22;55017;52.848;6.748;2023-04-22T20:50:05;12.60;99.90
57058;DHT22;55017;52.848;6.748;2023-04-22T20:52:32;12.50;99.90
57058;DHT22;55017;52.848;6.748;2023-04-22T20:54:58;12.50;99.90
57058;DHT22;55017;52.848;6.748;2023-04-22T20:57:24;12.40;99.90
57058;DHT22;55017;52.848;6.748;2023-04-22T20:59:49;12.50;99.90
57058;DHT22;55017;52.848;6.748;2023-04-22T21:02:15;12.30;99.90
57058;DHT22;55017;52.848;6.748;2023-04-22T21:04:41;12.40;99.90
57058;DHT22;55017;52.848;6.748;2023-04-22T21:07:09;12.30;99.90
57058;DHT22;55017;52.848;6.748;2023-04-22T21:09:36;13.00;99.90
57058;DHT22;55017;52.848;6.748;2023-04-22T21:12:03;12.80;99.90
57058;DHT22;55017;52.848;6.748;2023-04-22T21:14:28;12.50;99.90
57058;DHT22;55017;52.848;6.748;2023-04-22T21:19:22;12.20;99.90
57058;DHT22;55017;52.848;6.748;2023-04-22T21:21:48;12.90;99.90
57058;DHT22;55017;52.848;6.748;2023-04-22T21:24:15;12.40;99.90
57058;DHT22;55017;52.848;6.748;2023-04-22T21:26:42;12.10;99.90
57058;DHT22;55017;52.848;6.748;2023-04-22T21:29:09;12.10;99.90
57058;DHT22;55017;52.848;6.748;2023-04-22T21:31:35;12.70;99.90
57058;DHT22;55017;52.848;6.748;2023-04-22T21:34:02;12.20;99.90
57058;DHT22;55017;52.848;6.748;2023-04-22T21:36:29;11.90;99.90
57058;DHT22;55017;52.848;6.748;2023-04-22T21:38:55;11.80;99.90
57058;DHT22;55017;52.848;6.748;2023-04-22T21:41:21;12.40;99.90
57058;DHT22;55017;52.848;6.748;2023-04-22T21:43:46;12.00;99.90
57058;DHT22;55017;52.848;6.748;2023-04-22T21:46:12;11.60;99.90
57058;DHT22;55017;52.848;6.748;2023-04-22T21:48:37;11.60;99.90
57058;DHT22;55017;52.848;6.748;2023-04-22T21:51:03;11.30;99.90
57058;DHT22;55017;52.848;6.748;2023-04-22T21:53:28;11.20;99.90
57058;DHT22;55017;52.848;6.748;2023-04-22T21:55:54;11.10;99.90
57058;DHT22;55017;52.848;6.748;2023-04-22T21:58:19;10.90;99.90
57058;DHT22;55017;52.848;6.748;2023-04-22T22:00:45;10.80;99.90
57058;DHT22;55017;52.848;6.748;2023-04-22T22:03:10;10.80;99.90
57058;DHT22;55017;52.848;6.748;2023-04-22T22:05:37;10.70;99.90
57058;DHT22;55017;52.848;6.748;2023-04-22T22:08:02;10.60;99.90
57058;DHT22;55017;52.848;6.748;2023-04-22T22:10:28;10.60;99.90
57058;DHT22;55017;52.848;6.748;2023-04-22T22:12:54;10.40;99.90
57058;DHT22;55017;52.848;6.748;2023-04-22T22:15:19;10.30;99.90
57058;DHT22;55017;52.848;6.748;2023-04-22T22:17:45;10.30;99.90
57058;DHT22;55017;52.848;6.748;2023-04-22T22:20:13;10.30;99.90
57058;DHT22;55017;52.848;6.748;2023-04-22T22:22:42;10.10;99.90
57058;DHT22;55017;52.848;6.748;2023-04-22T22:25:11;10.20;99.90
57058;DHT22;55017;52.848;6.748;2023-04-22T22:27:38;10.10;99.90
57058;DHT22;55017;52.848;6.748;2023-04-22T22:30:11;10.10;99.90
57058;DHT22;55017;52.848;6.748;2023-04-22T22:32:37;10.00;99.90
57058;DHT22;55017;52.848;6.748;2023-04-22T22:35:02;10.00;99.90
57058;DHT22;55017;52.848;6.748;2023-04-22T22:37:28;10.00;99.90
57058;DHT22;55017;52.848;6.748;2023-04-22T22:39:54;10.00;99.90
57058;DHT22;55017;52.848;6.748;2023-04-22T22:42:20;10.00;99.90
57058;DHT22;55017;52.848;6.748;2023-04-22T22:44:46;10.90;99.90
57058;DHT22;55017;52.848;6.748;2023-04-22T22:47:12;10.60;99.90
57058;DHT22;55017;52.848;6.748;2023-04-22T22:49:37;10.40;99.90
57058;DHT22;55017;52.848;6.748;2023-04-22T22:52:03;10.40;99.90
57058;DHT22;55017;52.848;6.748;2023-04-22T22:54:29;10.50;99.90
57058;DHT22;55017;52.848;6.748;2023-04-22T22:56:54;10.40;99.90
57058;DHT22;55017;52.848;6.748;2023-04-22T22:59:22;10.30;99.90
57058;DHT22;55017;52.848;6.748;2023-04-22T23:01:48;11.10;99.90
57058;DHT22;55017;52.848;6.748;2023-04-22T23:04:14;10.80;99.90
57058;DHT22;55017;52.848;6.748;2023-04-22T23:06:40;10.60;99.90
57058;DHT22;55017;52.848;6.748;2023-04-22T23:09:05;10.50;99.90
57058;DHT22;55017;52.848;6.748;2023-04-22T23:11:32;10.40;99.90
57058;DHT22;55017;52.848;6.748;2023-04-22T23:13:57;10.40;99.90
57058;DHT22;55017;52.848;6.748;2023-04-22T23:16:23;10.30;99.90
57058;DHT22;55017;52.848;6.748;2023-04-22T23:18:48;10.30;99.90
57058;DHT22;55017;52.848;6.748;2023-04-22T23:21:14;10.40;99.90
57058;DHT22;55017;52.848;6.748;2023-04-22T23:23:40;11.00;99.90
57058;DHT22;55017;52.848;6.748;2023-04-22T23:26:06;10.60;99.90
57058;DHT22;55017;52.848;6.748;2023-04-22T23:28:32;10.40;99.90
57058;DHT22;55017;52.848;6.748;2023-04-22T23:30:59;10.40;99.90
57058;DHT22;55017;52.848;6.748;2023-04-22T23:33:28;10.30;99.90
57058;DHT22;55017;52.848;6.748;2023-04-22T23:35:55;10.20;99.90
57058;DHT22;55017;52.848;6.748;2023-04-22T23:38:21;10.10;99.90
57058;DHT22;55017;52.848;6.748;2023-04-22T23:40:47;10.00;99.90
57058;DHT22;55017;52.848;6.748;2023-04-22T23:43:13;10.10;99.90
57058;DHT22;55017;52.848;6.748;2023-04-22T23:45:39;10.10;99.90
57058;DHT22;55017;52.848;6.748;2023-04-22T23:48:04;10.10;99.90
57058;DHT22;55017;52.848;6.748;2023-04-22T23:50:30;10.10;99.90
57058;DHT22;55017;52.848;6.748;2023-04-22T23:52:56;10.10;99.90
57058;DHT22;55017;52.848;6.748;2023-04-22T23:55:22;10.00;99.90
57058;DHT22;55017;52.848;6.748;2023-04-22T23:57:48;10.00;99.90
